createdAt,value
2018-08-04T00:01:32.252Z,24.10
2018-08-04T00:04:01.594Z,24.10
2018-08-04T00:06:33.130Z,24.10
2018-08-04T00:09:02.682Z,24.10
2018-08-04T00:11:32.600Z,24.00
2018-08-04T00:14:01.890Z,23.90
2018-08-04T00:16:31.157Z,23.70
2018-08-04T00:19:00.465Z,23.70
2018-08-04T00:21:29.811Z,23.50
2018-08-04T00:23:59.432Z,23.40
2018-08-04T00:26:32.618Z,23.40
2018-08-04T00:29:02.809Z,23.30
2018-08-04T00:31:33.284Z,23.20
2018-08-04T00:34:02.550Z,23.10
2018-08-04T00:36:31.875Z,23.10
2018-08-04T00:39:01.918Z,23.10
2018-08-04T00:41:31.230Z,23.10
2018-08-04T00:44:00.506Z,23.10
2018-08-04T00:46:29.863Z,23.10
2018-08-04T00:48:59.093Z,23.20
2018-08-04T00:51:30.363Z,23.20
2018-08-04T00:53:59.611Z,23.10
2018-08-04T00:56:28.845Z,23.10
2018-08-04T00:58:58.144Z,23.20
2018-08-04T01:01:27.332Z,23.10
2018-08-04T01:03:56.734Z,23.10
2018-08-04T01:06:26.268Z,23.00
2018-08-04T01:08:55.518Z,23.00
2018-08-04T01:11:25.463Z,22.90
2018-08-04T01:13:56.465Z,22.90
2018-08-04T01:16:25.725Z,22.80
2018-08-04T01:18:55.496Z,22.90
2018-08-04T01:21:24.990Z,22.90
2018-08-04T01:41:58.735Z,22.40
2018-08-04T01:44:28.100Z,22.40
2018-08-04T01:46:57.906Z,22.30
2018-08-04T01:49:27.189Z,22.30
2018-08-04T02:10:01.479Z,22.10
2018-08-04T02:12:31.392Z,22.00
2018-08-04T02:15:01.599Z,21.90
2018-08-04T02:17:31.017Z,21.90
2018-08-04T02:20:00.262Z,21.90
2018-08-04T02:22:29.520Z,22.00
2018-08-04T02:24:58.853Z,22.00
2018-08-04T02:27:28.337Z,22.10
2018-08-04T02:29:57.565Z,22.20
2018-08-04T02:50:31.140Z,22.20
2018-08-04T02:53:00.999Z,22.00
2018-08-04T02:55:30.329Z,22.00
2018-08-04T02:58:01.180Z,22.00
2018-08-04T03:00:30.515Z,21.80
2018-08-04T03:03:00.725Z,21.70
2018-08-04T03:05:30.570Z,21.50
2018-08-04T03:07:59.922Z,21.60
2018-08-04T03:10:29.180Z,21.60
2018-08-04T03:12:58.483Z,21.50
2018-08-04T03:15:27.960Z,21.50
2018-08-04T03:17:57.172Z,21.40
2018-08-04T03:20:26.456Z,21.40
2018-08-04T03:22:55.825Z,21.40
2018-08-04T03:25:25.195Z,21.30
2018-08-04T03:27:54.401Z,21.40
2018-08-04T03:30:23.861Z,21.40
2018-08-04T03:32:53.182Z,21.50
2018-08-04T03:35:23.645Z,21.60
2018-08-04T03:37:54.372Z,21.60
2018-08-04T03:40:23.841Z,21.50
2018-08-04T03:42:53.146Z,21.40
2018-08-04T03:45:23.519Z,21.30
2018-08-04T03:47:52.769Z,21.30
2018-08-04T03:50:21.994Z,21.30
2018-08-04T03:52:51.250Z,21.40
2018-08-04T03:55:20.584Z,21.40
2018-08-04T03:57:49.909Z,21.50
2018-08-04T04:00:19.160Z,21.50
2018-08-04T04:02:49.141Z,21.60
2018-08-04T04:05:18.409Z,21.60
2018-08-04T04:07:47.977Z,21.60
2018-08-04T04:10:17.294Z,21.50
2018-08-04T04:12:47.221Z,21.40
2018-08-04T04:15:16.522Z,21.30
2018-08-04T04:17:48.383Z,21.40
2018-08-04T04:20:19.967Z,21.30
2018-08-04T04:22:49.738Z,21.30
2018-08-04T04:25:19.755Z,21.30
2018-08-04T04:27:48.996Z,21.40
2018-08-04T04:30:18.274Z,21.30
2018-08-04T04:32:47.526Z,21.30
2018-08-04T04:35:16.766Z,21.20
2018-08-04T04:37:46.086Z,21.20
2018-08-04T04:40:15.352Z,21.10
2018-08-04T04:42:45.267Z,21.10
2018-08-04T04:45:14.537Z,21.10
2018-08-04T04:47:44.642Z,21.10
2018-08-04T04:50:13.852Z,21.10
2018-08-04T05:10:45.848Z,21.60
2018-08-04T05:13:15.289Z,21.60
2018-08-04T05:15:44.478Z,21.70
2018-08-04T05:18:13.755Z,21.60
2018-08-04T05:20:44.342Z,21.60
2018-08-04T05:23:13.863Z,21.80
2018-08-04T05:25:43.770Z,21.80
2018-08-04T05:28:12.993Z,21.80
2018-08-04T05:30:44.497Z,21.80
2018-08-04T05:33:14.412Z,21.80
2018-08-04T05:53:49.141Z,22.30
2018-08-04T05:56:19.002Z,22.40
2018-08-04T05:58:48.226Z,22.40
2018-08-04T06:01:19.146Z,22.50
2018-08-04T06:21:52.880Z,22.70
2018-08-04T06:24:22.258Z,22.80
2018-08-04T06:26:51.527Z,22.90
2018-08-04T06:29:20.813Z,22.90
2018-08-04T06:31:50.789Z,22.90
2018-08-04T06:34:19.994Z,23.00
2018-08-04T06:36:49.164Z,23.00
2018-08-04T06:57:22.639Z,23.60
2018-08-04T07:17:56.427Z,24.10
2018-08-04T07:20:26.090Z,24.30
2018-08-04T07:22:55.540Z,24.40
2018-08-04T07:25:24.790Z,24.40
2018-08-04T07:27:54.110Z,24.60
2018-08-04T07:30:23.454Z,24.70
2018-08-04T07:50:57.111Z,25.00
2018-08-04T07:53:26.505Z,25.10
2018-08-04T07:55:55.807Z,25.10
2018-08-04T07:58:25.086Z,25.20
2018-08-04T08:00:54.393Z,25.20
2018-08-04T08:03:23.729Z,25.20
2018-08-04T08:05:53.338Z,25.30
2018-08-04T08:08:22.818Z,25.30
2018-08-04T08:10:52.170Z,25.40
2018-08-04T08:13:23.507Z,25.40
2018-08-04T08:15:54.013Z,25.40
2018-08-04T08:18:23.446Z,25.50
2018-08-04T08:20:52.704Z,25.50
2018-08-04T08:23:22.034Z,25.60
2018-08-04T08:26:04.145Z,25.60
2018-08-04T08:28:33.637Z,25.70
2018-08-04T08:31:03.269Z,25.80
2018-08-04T08:33:32.769Z,25.90
2018-08-04T08:36:02.086Z,25.90
2018-08-04T08:38:31.817Z,26.00
2018-08-04T08:41:01.611Z,26.10
2018-08-04T08:43:31.737Z,26.10
2018-08-04T08:46:01.094Z,26.20
2018-08-04T08:48:30.329Z,26.30
2018-08-04T08:50:59.647Z,26.30
2018-08-04T08:53:29.081Z,26.50
2018-08-04T08:55:58.145Z,26.50
2018-08-04T08:58:28.297Z,26.60
2018-08-04T09:00:57.466Z,26.70
2018-08-04T09:03:27.557Z,26.80
2018-08-04T09:05:57.533Z,26.80
2018-08-04T09:08:27.397Z,26.80
2018-08-04T09:10:56.632Z,26.80
2018-08-04T09:31:30.601Z,27.40
2018-08-04T09:34:01.274Z,27.50
2018-08-04T09:36:30.551Z,27.50
2018-08-04T09:38:59.760Z,27.60
2018-08-04T09:41:29.203Z,27.60
2018-08-04T09:43:58.493Z,27.60
2018-08-04T09:46:28.603Z,27.70
2018-08-04T09:48:58.229Z,27.80
2018-08-04T09:51:28.178Z,27.90
2018-08-04T09:53:58.197Z,28.00
2018-08-04T09:56:27.473Z,28.00
2018-08-04T09:58:57.458Z,28.10
2018-08-04T10:01:31.897Z,28.20
2018-08-04T10:04:02.265Z,28.40
2018-08-04T10:06:32.458Z,28.50
2018-08-04T10:27:06.464Z,28.50
2018-08-04T10:29:36.192Z,28.60
2018-08-04T10:32:05.845Z,28.60
2018-08-04T10:34:35.032Z,28.60
2018-08-04T10:37:05.179Z,28.60
2018-08-04T10:57:39.242Z,29.50
2018-08-04T11:00:09.763Z,29.70
2018-08-04T11:02:39.113Z,29.80
2018-08-04T11:05:09.251Z,29.90
2018-08-04T11:07:38.506Z,29.90
2018-08-04T11:10:07.996Z,30.00
2018-08-04T11:12:37.369Z,30.00
2018-08-04T11:15:07.914Z,30.00
2018-08-04T11:17:37.190Z,30.00
2018-08-04T11:20:06.400Z,29.80
2018-08-04T11:22:36.486Z,29.80
2018-08-04T11:25:05.735Z,30.00
2018-08-04T11:45:39.287Z,31.40
2018-08-04T11:48:08.480Z,31.50
2018-08-04T11:50:37.860Z,31.60
2018-08-04T11:53:07.424Z,31.60
2018-08-04T11:55:37.401Z,31.70
2018-08-04T11:58:06.706Z,31.80
2018-08-04T12:00:36.715Z,31.70
2018-08-04T12:21:10.147Z,32.00
2018-08-04T12:23:39.337Z,32.00
2018-08-04T12:26:09.327Z,32.20
2018-08-04T12:28:38.573Z,32.40
2018-08-04T12:49:12.562Z,32.20
2018-08-04T12:51:41.849Z,32.20
2018-08-04T13:12:16.634Z,32.20
2018-08-04T13:14:46.543Z,32.10
2018-08-04T13:17:15.994Z,32.00
2018-08-04T13:19:45.263Z,32.10
2018-08-04T13:22:15.518Z,32.10
2018-08-04T13:42:49.322Z,31.50
2018-08-04T13:45:18.617Z,31.40
2018-08-04T13:47:48.479Z,31.30
2018-08-04T13:50:17.786Z,31.40
2018-08-04T13:52:47.686Z,31.40
2018-08-04T13:55:18.510Z,31.40
2018-08-04T13:57:47.856Z,31.40
2018-08-04T14:00:18.027Z,31.40
2018-08-04T14:02:47.290Z,31.40
2018-08-04T14:05:16.572Z,31.50
2018-08-04T14:07:46.035Z,31.50
2018-08-04T14:28:20.555Z,32.00
2018-08-04T14:30:49.856Z,32.00
2018-08-04T14:33:18.989Z,32.40
2018-08-04T14:35:49.111Z,33.30
2018-08-04T14:38:19.467Z,34.20
2018-08-04T14:40:48.935Z,35.10
2018-08-04T14:43:18.151Z,35.90
2018-08-04T14:45:48.558Z,36.70
2018-08-04T14:50:46.499Z,37.50
2018-08-04T14:53:15.843Z,37.90
2018-08-04T15:13:49.264Z,39.10
2018-08-04T15:34:23.280Z,39.20
2018-08-04T15:36:53.835Z,39.00
2018-08-04T15:39:23.214Z,39.30
2018-08-04T15:59:56.267Z,36.90
2018-08-04T16:02:26.818Z,36.50
2018-08-04T16:04:56.748Z,36.10
2018-08-04T16:07:27.146Z,36.00
2018-08-04T16:28:01.241Z,33.60
2018-08-04T16:30:31.371Z,33.40
2018-08-04T16:33:00.649Z,33.20
2018-08-04T16:35:30.718Z,32.90
2018-08-04T16:38:01.289Z,32.70
2018-08-04T16:40:30.454Z,32.40
2018-08-04T16:43:00.386Z,32.20
2018-08-04T16:45:29.962Z,32.10
2018-08-04T16:47:59.135Z,31.90
2018-08-04T16:50:28.402Z,31.80
2018-08-04T16:52:58.202Z,31.70
2018-08-04T16:55:27.450Z,31.60
2018-08-04T16:57:57.375Z,31.50
2018-08-04T17:00:26.767Z,31.50
2018-08-04T17:02:56.649Z,31.40
2018-08-04T17:05:27.329Z,31.40
2018-08-04T17:07:56.658Z,31.30
2018-08-04T17:10:26.173Z,31.20
2018-08-04T17:12:55.429Z,31.10
2018-08-04T17:15:26.238Z,31.00
2018-08-04T17:17:55.461Z,31.00
2018-08-04T17:20:25.445Z,31.00
2018-08-04T17:22:55.734Z,30.90
2018-08-04T17:25:25.091Z,30.90
2018-08-04T17:27:54.461Z,30.80
2018-08-04T17:30:23.671Z,30.80
2018-08-04T17:32:53.306Z,30.80
2018-08-04T17:35:22.624Z,30.80
2018-08-04T17:37:52.882Z,30.80
2018-08-04T17:40:22.141Z,30.80
2018-08-04T18:00:55.163Z,30.60
2018-08-04T18:03:25.451Z,30.60
2018-08-04T18:05:55.359Z,30.50
2018-08-04T18:08:24.756Z,30.50
2018-08-04T18:10:54.417Z,30.40
2018-08-04T18:31:21.205Z,29.60
2018-08-04T18:33:50.551Z,29.50
2018-08-04T18:36:20.475Z,29.40
2018-08-04T18:56:54.310Z,28.50
2018-08-04T18:59:24.431Z,28.50
2018-08-04T19:01:55.091Z,28.30
2018-08-04T19:04:24.236Z,28.30
2018-08-04T19:06:54.328Z,28.10
2018-08-04T19:09:23.628Z,28.10
2018-08-04T19:11:53.580Z,28.00
2018-08-04T19:14:22.810Z,28.00
2018-08-04T19:16:52.121Z,27.90
2018-08-04T19:37:25.159Z,27.50
2018-08-04T19:39:55.250Z,27.40
2018-08-04T20:00:21.412Z,27.30
2018-08-04T20:20:54.830Z,27.00
2018-08-04T20:23:25.327Z,27.00
2018-08-04T20:25:54.489Z,26.80
2018-08-04T20:28:23.937Z,26.80
2018-08-04T20:30:53.181Z,26.60
2018-08-04T20:33:22.457Z,26.40
2018-08-04T20:35:51.834Z,26.20
2018-08-04T20:56:25.180Z,26.10
2018-08-04T20:58:54.550Z,26.10
2018-08-04T21:01:34.508Z,26.10
2018-08-04T21:04:03.871Z,26.00
2018-08-04T21:06:33.759Z,26.00
2018-08-04T21:09:03.170Z,26.00
2018-08-04T21:11:32.638Z,26.00
2018-08-04T21:14:02.809Z,25.90
2018-08-04T21:16:32.069Z,26.00
2018-08-04T21:19:01.434Z,25.90
2018-08-04T21:21:31.322Z,26.00
2018-08-04T21:24:00.755Z,26.00
2018-08-04T21:26:30.336Z,25.90
2018-08-04T21:29:00.360Z,25.90
2018-08-04T21:31:29.740Z,25.90
2018-08-04T21:33:59.709Z,25.90
2018-08-04T21:36:28.879Z,25.80
2018-08-04T21:38:58.165Z,25.70
2018-08-04T21:41:28.024Z,25.60
2018-08-04T21:43:58.436Z,25.60
2018-08-04T21:46:27.638Z,25.60
2018-08-04T21:48:56.852Z,25.50
2018-08-04T21:51:26.833Z,25.30
2018-08-04T21:53:56.646Z,25.20
2018-08-04T21:56:26.719Z,25.10
2018-08-04T21:58:55.970Z,25.10
2018-08-04T22:01:25.859Z,25.20
2018-08-04T22:03:55.672Z,25.20
2018-08-04T22:06:47.454Z,25.10
2018-08-04T22:09:22.528Z,25.10
2018-08-04T22:11:51.782Z,24.90
2018-08-04T22:14:22.397Z,24.90
2018-08-04T22:16:52.659Z,24.90
2018-08-04T22:19:21.976Z,24.80
2018-08-04T22:21:51.181Z,24.80
2018-08-04T22:24:20.706Z,24.80
2018-08-04T22:26:49.972Z,24.80
2018-08-04T22:29:19.268Z,24.80
2018-08-04T22:31:48.536Z,24.80
2018-08-04T22:34:17.857Z,24.70
2018-08-04T22:36:47.083Z,24.70
2018-08-04T22:39:16.477Z,24.60
2018-08-04T22:41:45.696Z,24.60
2018-08-04T22:44:14.910Z,24.60
2018-08-04T22:46:44.157Z,24.50
2018-08-04T22:49:13.536Z,24.40
2018-08-04T22:51:42.845Z,24.20
2018-08-04T22:54:12.119Z,24.10
2018-08-04T22:56:41.517Z,24.00
2018-08-04T22:59:12.392Z,24.10
2018-08-04T23:01:42.011Z,24.10
2018-08-04T23:04:11.741Z,24.10
2018-08-04T23:06:41.115Z,24.10
2018-08-04T23:09:10.398Z,24.10
2018-08-04T23:11:39.629Z,24.10
2018-08-04T23:14:08.976Z,24.10
2018-08-04T23:16:38.315Z,24.10
2018-08-04T23:19:07.636Z,24.10
2018-08-04T23:21:37.725Z,23.90
2018-08-04T23:24:07.732Z,24.00
2018-08-04T23:26:37.011Z,24.00
2018-08-04T23:29:06.237Z,24.00
2018-08-04T23:31:35.525Z,24.00
2018-08-04T23:34:04.762Z,23.90
2018-08-04T23:36:34.126Z,23.90
2018-08-04T23:39:03.574Z,23.80
2018-08-04T23:41:32.788Z,23.70
2018-08-04T23:44:02.849Z,23.60
2018-08-04T23:46:32.136Z,23.50
2018-08-04T23:49:01.490Z,23.50
2018-08-04T23:51:31.410Z,23.30
2018-08-04T23:54:00.715Z,23.40
2018-08-04T23:56:30.465Z,23.30
2018-08-04T23:58:59.770Z,23.30
